VBRA4: Lee Creek, Van Buren

                                SHEF ID:       VBRA4     Lee Creek at Lee Creek Reservoir
STATION TYPE: Stream Gauge
Regulating: Stage = 17.00, Flow = 0

PRECIP STAGE RIV-FLOW BAT-LOAD
in ft cfs volt
Ccp-Rev Ccp-Rev Ccp-Rev Ccp-Rev
(America/Chicago)
04/27 00:00 0.00 20.70 1714 12.25
04/27 01:00 0.00 20.67 1596 12.23
04/27 02:00 0.00 20.66 1558 12.21
04/27 03:00 0.00 20.64 1482 12.19
04/27 04:00 0.00 20.60 1334 12.17
04/27 05:00 0.00 20.58 1263 12.15
04/27 06:00 0.00 20.56 1193 12.14
04/27 07:00 0.00 20.55 1158 12.14
04/27 08:00 0.00 20.54 1124 12.14
04/27 09:00 0.00 20.53 1090 12.13
04/27 10:00 0.00 20.51 1024 12.17
04/27 11:00 0.00 20.50 992 12.22
04/27 12:00 0.00 20.49 960 12.27
04/27 13:00 0.00 20.50 992 12.31
04/27 14:00 0.00 20.49 960 12.56
04/27 15:00 0.00 20.48 928 12.70
04/27 16:00 0.00 20.47 897 12.62
04/27 17:00 0.00 20.47 897 12.72
04/27 18:00 0.00 20.46 866 12.53
04/27 19:00 0.00 20.45 836 12.41
04/27 20:00 0.00 20.39 662 12.36
04/27 21:00 0.00 20.38 635 12.34
04/27 22:00 0.00 20.36 581 12.33
04/27 23:00 ---- ---- ---- ----
Data processed at Tue 28Apr2026 04:57 GMT

NOTICE: If you are parsing this page

Please convert to using our Data API. Starting early 2026 we will be migrating to: https://water.usace.army.mil with modern pages rendered in JavaScript. When this migration completes you will no longer be able to scrape this page! CWMSDataAPI (CDA)

Timeseries IDs (TSIDs)

TSIDs used from left to right in the data table
VANL.Precip-Inc.Total.1Hour.1Hour.Ccp-Rev
VANL.Stage.Inst.1Hour.0.Ccp-Rev
VANL.Flow.Inst.1Hour.0.Ccp-Rev
VANL.Volt-Battery Load.Inst.1Hour.0.Ccp-Rev

                            

All information presented herein is the property of the government of the United States of America and may be revised or deleted at any time without prior notice. Dissemination of this information without the expressed written consent of the Public Affairs Office, Tulsa District U.S. Army Corps of Engineers is strictly prohibited. These data are gathered electronically and, as presented, have NOT undergone any form of quality control. These data are NOT guaranteed to be valid or correct.